Latest Weather Observations for Tarcoola

IDS60801

Issued at 9:02 am CDT Sunday 1 February 2015 (issued every 30 minutes, with the page automatically refreshed every 10 minutes)

About weather observations | Map of weather stations | Latest weather observations for SA | Other Formats
Station Details ID: 016098 Name: TARCOOLA AERO Lat: -30.71 Lon: 134.58 Height: 123.0 m
Data from the previous 72 hours. | See also: Recent months at Tarcoola
Date/Time
CDT
Temp
°C
App
Temp
°C
Dew
Point
Rel
Hum
%
Delta-T
°C
Wind Press
QNH
hPa
Press
MSL
hPa
Rain
since 9 am
mm
Dir
 
Spd
km/h
Gust
km/h
Spd
kts
Gust
kts
01/09:00am 18.5 14.1 9.0 54 5.0 SE 22 30 12 16 1018.6 1017.9 0.0
01/08:30am 18.4 14.4 9.2 55 4.8 ESE 20 28 11 15 1018.1 1017.4 0.0
01/08:00am 17.6 13.6 9.0 57 4.5 SSE 20 26 11 14 1017.9 1017.2 0.0
01/07:30am 17.1 14.4 8.8 58 4.3 SSE 13 17 7 9 1017.1 1016.3 0.0
01/07:00am 16.5 13.7 8.5 59 4.1 SSE 13 20 7 11 1016.5 1015.7 0.0
01/06:30am 16.8 13.8 7.7 55 4.6 SSE 13 17 7 9 1015.9 1015.1 0.0
01/06:00am 17.3 13.2 7.9 54 4.8 SSE 19 28 10 15 1015.5 1014.7 0.0
01/05:00am 18.1 14.2 7.2 49 5.5 SSE 17 24 9 13 1014.8 1014.0 0.0
01/04:30am 18.8 13.6 7.3 47 5.9 SE 24 33 13 18 1014.4 1013.6 0.0
01/04:00am 19.5 15.0 6.9 44 6.4 SSE 20 30 11 16 1014.1 1013.3 0.0
01/03:30am 20.2 15.9 6.9 42 6.8 SSE 19 26 10 14 1014.0 1013.2 0.0
01/03:00am 21.1 15.8 6.6 39 7.4 SSE 24 32 13 17 1014.0 1013.2 0.0
01/02:30am 22.1 17.4 5.9 35 8.2 SE 20 28 11 15 1014.0 1013.2 0.0
01/02:00am 22.9 18.0 5.3 32 8.9 SE 20 30 11 16 1013.9 1013.1 0.0
01/01:30am 23.8 18.3 5.7 31 9.2 SE 24 37 13 20 1014.0 1013.2 0.0
01/01:00am 24.6 19.4 5.4 29 9.8 SSE 22 32 12 17 1014.1 1013.3 0.0
01/12:30am 25.7 20.5 5.3 27 10.4 SSE 22 35 12 19 1014.0 1013.2 0.0
01/12:00am 26.0 21.6 7.6 31 9.8 S 20 30 11 16 1013.7 1012.9 0.0
 
Date/Time
CDT
Temp
°C
App
Temp
°C
Dew
Point
Rel
Hum
%
Delta-T
°C
Wind Press
QNH
hPa
Press
MSL
hPa
Rain
since 9 am
mm
Dir
 
Spd
km/h
Gust
km/h
Spd
kts
Gust
kts
31/11:30pm 26.6 21.4 7.1 29 10.4 S 24 30 13 16 1013.5 1012.7 0.0
31/11:00pm 27.7 22.3 6.5 26 11.2 S 24 41 13 22 1013.4 1012.6 0.0
31/10:30pm 28.6 22.6 5.5 23 12.1 S 26 35 14 19 1013.2 1012.4 0.0
31/10:00pm 29.4 23.5 4.1 20 13.0 S 24 33 13 18 1012.7 1011.9 0.0
31/09:30pm 30.4 24.0 3.4 18 13.8 S 26 37 14 20 1012.2 1011.4 0.0
31/09:00pm 31.4 25.3 0.7 14 15.1 S 22 35 12 19 1011.6 1010.9 0.0
31/08:30pm 32.6 26.0 -0.5 12 16.1 S 24 33 13 18 1011.0 1010.3 0.0
31/08:00pm 33.9 27.6 -0.7 11 16.9 S 22 32 12 17 1010.5 1009.8 0.0
31/07:30pm 34.7 28.5 -0.1 11 17.2 S 22 33 12 18 1010.1 1009.4 0.0
31/07:00pm 35.3 29.6 0.4 11 17.5 S 20 33 11 18 1009.8 1009.0 0.0
31/06:30pm 36.0 31.3 0.9 11 17.8 S 15 26 8 14 1009.7 1008.9 0.0
31/06:00pm 35.7 31.4 0.7 11 17.7 SW 13 33 7 18 1009.7 1008.9 0.0
31/05:30pm 36.1 32.0 -0.3 10 18.1 SW 11 28 6 15 1009.9 1009.1 0.0
31/05:00pm 35.6 30.9 0.6 11 17.6 WSW 15 26 8 14 1010.2 1009.5 0.0
31/04:30pm 35.7 31.9 1.9 12 17.4 SSW 11 24 6 13 1010.5 1009.8 0.0
31/04:00pm 36.1 32.0 2.2 12 17.5 SW 13 26 7 14 1010.8 1010.1 0.0
31/03:30pm 35.1 31.1 2.6 13 16.8 WSW 13 24 7 13 1011.3 1010.6 0.0
31/03:00pm 35.1 31.4 2.6 13 16.8 SSW 11 30 6 16 1011.7 1011.0 0.0
31/02:30pm 33.3 29.7 3.2 15 15.6 SSE 11 19 6 10 1012.2 1011.4 0.0
31/02:00pm 32.0 29.0 3.9 17 14.6 NE 9 17 5 9 1012.5 1011.7 0.0
31/01:30pm 31.5 28.7 5.1 19 14.0 SE 9 15 5 8 1013.0 1012.2 0.0
31/01:00pm 31.4 29.3 5.8 20 13.7 S 6 13 3 7 1013.3 1012.5 0.0
31/12:30pm 29.6 26.1 5.6 22 12.6 ESE 13 20 7 11 1013.7 1012.9 0.0
31/12:00pm 28.7 25.5 6.7 25 11.8 SSE 13 20 7 11 1014.0 1013.2 0.0
31/11:30am 27.6 23.5 6.4 26 11.2 ESE 17 26 9 14 1014.2 1013.4 0.0
31/11:00am 26.3 21.3 6.3 28 10.5 SE 22 32 12 17 1014.3 1013.5 0.0
31/10:30am 25.6 21.2 6.7 30 9.9 SE 19 28 10 15 1014.5 1013.7 0.0
31/10:00am 24.1 19.5 6.4 32 9.2 SE 20 28 11 15 1014.3 1013.5 0.0
31/09:30am 23.5 19.1 6.7 34 8.7 SE 19 26 10 14 1014.3 1013.5 0.0
31/09:00am 22.7 18.3 7.3 37 8.0 ESE 20 28 11 15 1014.0 1013.2 0.0
31/08:30am 21.7 17.7 6.8 38 7.7 ESE 17 24 9 13 1014.0 1013.2 0.0
31/08:00am 21.1 17.6 7.0 40 7.2 SE 15 24 8 13 1013.1 1012.3 0.0
31/07:30am 20.1 15.8 7.1 43 6.6 SE 19 24 10 13 1012.6 1011.8 0.0
31/07:00am 20.2 16.3 7.2 43 6.7 ESE 17 24 9 13 1012.5 1011.7 0.0
31/06:30am 20.5 17.0 7.2 42 6.8 ESE 15 20 8 11 1012.3 1011.5 0.0
31/06:00am 21.1 17.2 7.0 40 7.2 ESE 17 26 9 14 1011.8 1011.1 0.0
31/05:30am 21.5 18.4 5.4 35 8.0 SE 11 19 6 10 1011.5 1010.8 0.0
31/05:00am 22.3 18.3 4.8 32 8.7 SE 15 22 8 12 1011.4 1010.7 0.0
31/04:30am 22.9 17.9 4.4 30 9.2 ESE 20 30 11 16 1011.1 1010.4 0.0
31/04:00am 23.8 17.7 4.7 29 9.6 ESE 26 35 14 19 1010.9 1010.2 0.0
31/03:30am 24.5 18.4 4.8 28 9.9 ESE 26 39 14 21 1010.7 1010.0 0.0
31/03:00am 25.2 18.5 3.8 25 10.6 ESE 28 39 15 21 1010.8 1010.1 0.0
31/02:30am 25.9 19.0 2.6 22 11.4 ESE 28 39 15 21 1010.9 1010.2 0.0
31/02:00am 26.4 19.8 2.3 21 11.8 ESE 26 37 14 20 1011.1 1010.4 0.0
31/01:30am 27.2 19.4 1.6 19 12.4 SE 32 39 17 21 1011.1 1010.4 0.0
31/01:00am 27.2 21.9 3.0 21 12.0 SSE 20 28 11 15 1011.2 1010.5 0.0
31/12:30am 27.3 22.6 3.1 21 12.1 S 17 20 9 11 1011.1 1010.4 0.0
31/12:00am 28.1 22.9 2.3 19 12.7 S 19 26 10 14 1011.2 1010.5 0.0
 
Date/Time
CDT
Temp
°C
App
Temp
°C
Dew
Point
Rel
Hum
%
Delta-T
°C
Wind Press
QNH
hPa
Press
MSL
hPa
Rain
since 9 am
mm
Dir
 
Spd
km/h
Gust
km/h
Spd
kts
Gust
kts
30/11:30pm 28.9 22.7 2.2 18 13.2 S 24 33 13 18 1011.2 1010.5 0.0
30/11:00pm 29.6 24.5 2.8 18 13.5 S 19 28 10 15 1011.1 1010.4 0.0
30/10:30pm 30.4 24.3 2.6 17 14.0 S 24 35 13 19 1010.7 1010.0 0.0
30/10:00pm 31.1 24.5 2.3 16 14.5 S 26 39 14 21 1010.5 1009.8 0.0
30/09:30pm 30.7 26.4 -1.9 12 15.2 SE 11 20 6 11 1010.0 1009.3 0.0
30/09:00pm 32.7 27.6 -1.6 11 16.4 E 15 22 8 12 1009.4 1008.6 0.0
30/08:30pm 33.7 27.8 -2.1 10 17.1 ESE 19 28 10 15 1009.3 1008.5 0.0
30/08:00pm 34.8 29.8 -1.3 10 17.5 ESE 15 24 8 13 1009.1 1008.3 0.0
30/07:30pm 35.6 30.5 -2.1 9 18.2 SE 15 26 8 14 1008.9 1008.1 0.0
30/07:00pm 36.2 30.0 -3.3 8 18.7 SSE 20 32 11 17 1008.7 1007.9 0.0
30/06:30pm 35.6 30.1 -2.1 9 18.2 SE 17 26 9 14 1008.7 1007.9 0.0
30/06:00pm 36.0 32.1 -1.8 9 18.4 S 9 19 5 10 1008.8 1008.0 0.0
30/05:30pm 36.3 31.6 -1.6 9 18.5 SE 13 28 7 15 1009.0 1008.2 0.0
30/05:00pm 36.9 32.3 -1.1 9 18.8 S 13 32 7 17 1009.3 1008.5 0.0
30/04:30pm 36.1 32.7 -1.7 9 18.4 NE 6 11 3 6 1009.7 1008.9 0.0
30/04:00pm 35.9 31.2 -1.9 9 18.3 SSE 13 26 7 14 1010.0 1009.3 0.0
30/03:30pm 35.7 31.0 -2.0 9 18.2 WSW 13 22 7 12 1010.4 1009.7 0.0
30/03:00pm 35.3 30.3 -0.9 10 17.8 SSW 15 28 8 15 1010.9 1010.2 0.0
30/02:30pm 35.4 30.3 0.5 11 17.5 E 17 28 9 15 1011.3 1010.6 0.0
30/02:00pm 34.8 31.1 0.0 11 17.3 WSW 9 15 5 8 1011.8 1011.1 0.0
30/01:30pm 33.8 28.5 -0.7 11 16.8 SSW 17 30 9 16 1012.2 1011.4 0.0
30/01:00pm 33.5 28.9 -1.0 11 16.7 S 13 22 7 12 1012.6 1011.8 0.0
30/12:30pm 33.5 29.1 0.2 12 16.4 SE 13 24 7 13 1013.1 1012.3 0.0
30/12:00pm 32.6 29.2 1.7 14 15.5 ENE 9 15 5 8 1013.6 1012.8 0.0
30/11:30am 31.8 27.8 2.9 16 14.7 ENE 13 17 7 9 1013.7 1012.9 0.0
30/11:00am 30.6 26.6 5.1 20 13.4 E 15 20 8 11 1013.9 1013.1 0.0
30/10:30am 29.2 24.8 4.6 21 12.7 ENE 17 22 9 12 1014.1 1013.3 0.0
30/10:00am 28.2 23.4 4.5 22 12.2 E 19 26 10 14 1014.1 1013.3 0.0
30/09:30am 26.6 21.3 5.0 25 11.1 E 22 30 12 16 1014.1 1013.3 0.0
30/09:00am 25.1 20.1 4.8 27 10.3 E 20 28 11 15 1014.0 1013.2 0.0
30/08:30am 24.2 19.5 5.1 29 9.7 ESE 19 26 10 14 1013.8 1013.0 0.0
30/08:00am 23.1 18.3 4.6 30 9.2 ESE 19 24 10 13 1013.6 1012.8 0.0
30/07:30am 22.1 18.0 4.2 31 8.8 ESE 15 20 8 11 1013.4 1012.6 0.0
30/07:00am 21.3 17.8 3.5 31 8.6 SE 11 17 6 9 1013.1 1012.3 0.0
30/06:30am 21.9 16.9 3.6 30 8.9 ESE 19 26 10 14 1012.7 1011.9 0.0
30/06:00am 21.6 17.0 3.8 31 8.6 ESE 17 22 9 12 1012.5 1011.7 0.0
30/05:30am 19.1 16.8 4.8 39 6.9 ESE 6 11 3 6 1012.3 1011.5 0.0
30/05:00am 17.4 15.1 4.7 43 6.1 SSW 6 7 3 4 1012.1 1011.3 0.0
30/04:30am 17.5 15.0 4.8 43 6.1 SSW 7 11 4 6 1012.1 1011.3 0.0
30/04:00am 17.7 14.8 4.6 42 6.3 SW 9 11 5 6 1012.3 1011.5 0.0
30/03:30am 18.9 15.3 5.0 40 6.8 WSW 13 15 7 8 1012.3 1011.5 0.0
30/03:00am 19.0 15.7 4.7 39 6.9 WSW 11 13 6 7 1012.3 1011.5 0.0
30/02:30am 19.6 16.4 4.9 38 7.2 SW 11 13 6 7 1012.1 1011.3 0.0
30/02:00am 20.2 16.9 4.7 36 7.6 SW 11 13 6 7 1012.1 1011.3 0.0
30/01:30am 21.2 17.9 4.3 33 8.3 SW 11 13 6 7 1012.1 1011.3 0.0
30/01:00am 22.9 19.7 4.9 31 9.0 SW 11 13 6 7 1012.3 1011.5 0.0
30/12:30am 25.1 21.6 5.3 28 10.1 S 13 20 7 11 1012.3 1011.5 0.0
30/12:00am 25.9 21.4 4.4 25 10.9 S 17 20 9 11 1012.4 1011.6 0.0
 
Date/Time
CDT
Temp
°C
App
Temp
°C
Dew
Point
Rel
Hum
%
Delta-T
°C
Wind Press
QNH
hPa
Press
MSL
hPa
Rain
since 9 am
mm
Dir
 
Spd
km/h
Gust
km/h
Spd
kts
Gust
kts
29/11:30pm 27.5 22.2 -3.3 13 13.7 S 15 20 8 11 1012.5 1011.7 0.0
29/11:00pm 25.8 21.8 -1.9 16 12.5 E 9 13 5 7 1012.2 1011.4 0.0
29/10:30pm 27.1 22.8 -1.7 15 13.1 E 11 13 6 7 1012.2 1011.4 0.0
29/10:00pm 29.0 23.6 -1.2 14 14.1 E 17 20 9 11 1012.2 1011.4 0.0
29/09:30pm 29.9 24.6 -0.5 14 14.5 E 17 22 9 12 1012.1 1011.3 0.0
29/09:00pm 30.9 25.6 -0.7 13 15.1 ESE 17 24 9 13 1011.6 1010.9 0.0
29/08:30pm 31.9 26.4 -2.2 11 16.0 SE 17 20 9 11 1011.4 1010.7 0.0
29/08:00pm 33.0 28.2 -2.6 10 16.7 SE 13 26 7 14 1011.1 1010.4 0.0
29/07:30pm 33.7 27.6 -2.1 10 17.0 SSE 20 32 11 17 1011.1 1010.4 0.0
29/07:00pm 34.2 28.5 -0.4 11 17.0 SSE 19 30 10 16 1010.8 1010.1 0.0
29/06:30pm 34.4 28.4 -1.6 10 17.4 SE 20 32 11 17 1010.7 1010.0 0.0
29/06:00pm 34.2 29.5 -1.7 10 17.3 SE 13 26 7 14 1010.8 1010.1 0.0
29/05:30pm 33.8 30.0 -0.7 11 16.8 SE 9 15 5 8 1011.1 1010.4 0.0
29/05:00pm 34.3 30.2 -0.4 11 17.0 E 11 22 6 12 1011.4 1010.7 0.0
29/04:30pm 34.2 31.0 0.8 12 16.7 E 7 19 4 10 1011.7 1011.0 0.0
29/04:00pm 34.0 29.5 -0.6 11 16.9 SE 13 35 7 19 1012.2 1011.4 0.0
29/03:30pm 33.6 29.7 1.4 13 16.2 SE 11 20 6 11 1012.5 1011.7 0.0
29/03:00pm 33.6 29.0 1.4 13 16.2 ESE 15 26 8 14 1012.8 1012.0 0.0
29/02:30pm 32.4 27.8 1.5 14 15.5 SSE 15 26 8 14 1013.1 1012.3 0.0
29/02:00pm 31.7 28.3 1.9 15 14.9 SSW 9 15 5 8 1013.5 1012.7 0.0
29/01:30pm 31.7 27.3 2.8 16 14.7 SSE 15 20 8 11 1014.1 1013.3 0.0
29/01:00pm 30.7 27.8 4.4 19 13.7 SSW 9 17 5 9 1014.4 1013.6 0.0
29/12:30pm 29.6 26.8 5.0 21 12.8 ENE 9 22 5 12 1014.8 1014.0 0.0
29/12:00pm 28.6 25.5 5.5 23 12.1 E 11 22 6 12 1015.1 1014.3 0.0
29/11:30am 27.5 24.6 6.3 26 11.2 E 11 20 6 11 1015.3 1014.5 0.0
29/11:00am 26.8 23.2 6.8 28 10.6 E 15 24 8 13 1015.5 1014.7 0.0
29/10:30am 25.2 21.3 7.3 32 9.5 ESE 17 22 9 12 1015.4 1014.6 0.0
29/10:00am 24.0 20.3 8.0 36 8.5 ESE 17 24 9 13 1015.4 1014.6 0.0
29/09:30am 22.8 19.6 8.5 40 7.6 SE 15 22 8 12 1015.4 1014.6 0.0

Other Formats:

Comma delimited format used in spreadsheet applications
http://www.bom.gov.au/fwo/IDS60801/IDS60801.94655.axf

JavaScript Object Notation format (JSON) in row-major order
http://www.bom.gov.au/fwo/IDS60801/IDS60801.94655.json